Gainesville, GA

10:33 PM EDT en Octubre 31, 2014 (GMT -0400)
Access-WDUN | Change Station
CLOSE
Current Station
Estación meteorológica personal
Location: Gainesville, GA
Altura: 1279 ft
Estaciones meteorológicas cercanas

Alt 1279 ft 34.32 °N, 83.83 °W | Updated 1 second ago

Overcast
Nublado
44.2 ° F
Sensación térmica 41 ° F
N
5.0
Viento Variable Viento desde NNO
Gusts 23.0 mph

Hoy
Alta -- | Baja -- ° F
--% Posibilidad de precipitaciones
Ayer
Alta -- | Baja -- ° F
Precip. -- pul
7:54 AM 6:42 PM
Cuarto creciente, 61% visible
Presión 29.89 pul
Visibilidad 10.0 Millas
Nubes Muy nublado 1500 ft
Nublado 2200 ft
Vientos helados 41 ° F
Punto de rocío 37 ° F
Humedad 75%
Precipitaciones 0.00 pul
Espesor de la nieve No disponible.
UV 0 de una escala de 12
Polen 2.20 de una escala de 12
Calidad del aire No disponible.
Flu Activity No disponible.
METAR KGVL 010153Z AUTO 31014G24KT 10SM BKN015 OVC022 08/06 A2989 RMK AO2 RAB21E34 SLP120 P0000 T00830056

More Conditions Fewer Conditions

Presión 29.89 pul
Visibilidad 10.0 Millas
Nubes Muy nublado 1500 ft
Nublado 2200 ft
Vientos helados 41 ° F
Punto de rocío 37 ° F
Humedad 75%
Precipitaciones 0.00 pul
Espesor de la nieve No disponible.
UV 0 de una escala de 12
Polen 2.20 de una escala de 12
Calidad del aire No disponible.
Flu Activity No disponible.
METAR KGVL 010153Z AUTO 31014G24KT 10SM BKN015 OVC022 08/06 A2989 RMK AO2 RAB21E34 SLP120 P0000 T00830056

More Conditions Fewer Conditions

10-Day Weather Forecast

Almanac

Astronomía

Oct. 31, 2014 Salida Puesta
Hora real
Crepúsculo civil
Crepúsculo náutico
Crepúsculo astronómico
Luna
Horas de luz
Horas de luz
Tomorrow will be .
, % of the Moon is Illuminated

Extremos de hoy

Máximos del estado Bajos del estado

Community

WunderPhotos

Upload Photos

1,766,823 ¡fotos cargadas!

WunderBlogs® & News

Nearby

Calidad del aire

  Calidad del aire Índice AQ Contaminante
Not available.

Grosos de nieve

Estación Profundido Altura

Actividad de terremotos

Ciudad Distance Mag. Tiempo y dato
Magnitud mínima muestra es 2,5.

Temperaturas de aguas costeras

Lugar Temperatura

Estaciones meteorológicas cercanas